sensor_id;sensor_type;location;lat;lon;timestamp;temperature;humidity
1702;DHT22;848;48.354;10.064;2022-09-09T00:00:27;14.20;99.90
1702;DHT22;848;48.354;10.064;2022-09-09T00:03:01;14.20;99.90
1702;DHT22;848;48.354;10.064;2022-09-09T00:05:32;14.20;99.90
1702;DHT22;848;48.354;10.064;2022-09-09T00:08:04;14.20;99.90
1702;DHT22;848;48.354;10.064;2022-09-09T00:10:33;14.20;99.90
1702;DHT22;848;48.354;10.064;2022-09-09T00:13:09;14.20;99.90
1702;DHT22;848;48.354;10.064;2022-09-09T00:15:47;14.20;99.90
1702;DHT22;848;48.354;10.064;2022-09-09T00:18:25;14.20;99.90
1702;DHT22;848;48.354;10.064;2022-09-09T00:21:01;14.20;99.90
1702;DHT22;848;48.354;10.064;2022-09-09T00:23:35;14.20;99.90
1702;DHT22;848;48.354;10.064;2022-09-09T00:26:08;14.10;99.90
1702;DHT22;848;48.354;10.064;2022-09-09T00:28:39;14.10;99.90
1702;DHT22;848;48.354;10.064;2022-09-09T00:31:12;14.10;99.90
1702;DHT22;848;48.354;10.064;2022-09-09T00:33:40;14.10;99.90
1702;DHT22;848;48.354;10.064;2022-09-09T00:36:12;14.10;99.90
1702;DHT22;848;48.354;10.064;2022-09-09T00:38:44;14.10;99.90
1702;DHT22;848;48.354;10.064;2022-09-09T00:41:19;14.10;99.90
1702;DHT22;848;48.354;10.064;2022-09-09T00:43:55;14.20;99.90
1702;DHT22;848;48.354;10.064;2022-09-09T00:46:47;14.20;99.90
1702;DHT22;848;48.354;10.064;2022-09-09T00:49:27;14.20;99.90
1702;DHT22;848;48.354;10.064;2022-09-09T00:52:09;14.10;99.90
1702;DHT22;848;48.354;10.064;2022-09-09T00:54:48;14.10;99.90
1702;DHT22;848;48.354;10.064;2022-09-09T00:57:25;14.10;99.90
1702;DHT22;848;48.354;10.064;2022-09-09T00:59:58;14.00;99.90
1702;DHT22;848;48.354;10.064;2022-09-09T01:02:33;14.10;99.90
1702;DHT22;848;48.354;10.064;2022-09-09T01:05:07;14.10;99.90
1702;DHT22;848;48.354;10.064;2022-09-09T01:07:44;14.30;99.90
1702;DHT22;848;48.354;10.064;2022-09-09T01:10:25;14.30;99.90
1702;DHT22;848;48.354;10.064;2022-09-09T01:12:56;14.30;99.90
1702;DHT22;848;48.354;10.064;2022-09-09T01:15:28;14.20;99.90
1702;DHT22;848;48.354;10.064;2022-09-09T01:18:00;14.30;99.90
1702;DHT22;848;48.354;10.064;2022-09-09T01:20:33;14.20;99.90
1702;DHT22;848;48.354;10.064;2022-09-09T01:23:28;14.30;99.90
1702;DHT22;848;48.354;10.064;2022-09-09T01:26:14;14.30;99.90
1702;DHT22;848;48.354;10.064;2022-09-09T01:28:44;14.30;99.90
1702;DHT22;848;48.354;10.064;2022-09-09T01:31:15;14.20;99.90
1702;DHT22;848;48.354;10.064;2022-09-09T01:33:46;14.30;99.90
1702;DHT22;848;48.354;10.064;2022-09-09T01:36:21;14.30;99.90
1702;DHT22;848;48.354;10.064;2022-09-09T01:38:51;14.20;99.90
1702;DHT22;848;48.354;10.064;2022-09-09T01:41:19;14.20;99.90
1702;DHT22;848;48.354;10.064;2022-09-09T01:43:47;14.20;99.90
1702;DHT22;848;48.354;10.064;2022-09-09T01:46:14;14.20;99.90
1702;DHT22;848;48.354;10.064;2022-09-09T01:48:43;14.20;99.90
1702;DHT22;848;48.354;10.064;2022-09-09T01:51:10;14.20;99.90
1702;DHT22;848;48.354;10.064;2022-09-09T01:53:37;14.20;99.90
1702;DHT22;848;48.354;10.064;2022-09-09T01:56:12;14.20;99.90
1702;DHT22;848;48.354;10.064;2022-09-09T01:58:53;14.20;99.90
1702;DHT22;848;48.354;10.064;2022-09-09T02:01:30;14.20;99.90
1702;DHT22;848;48.354;10.064;2022-09-09T02:04:07;14.10;99.90
1702;DHT22;848;48.354;10.064;2022-09-09T02:06:36;14.10;99.90
1702;DHT22;848;48.354;10.064;2022-09-09T02:09:06;14.00;99.90
1702;DHT22;848;48.354;10.064;2022-09-09T02:11:37;14.00;99.90
1702;DHT22;848;48.354;10.064;2022-09-09T02:14:10;14.00;99.90
1702;DHT22;848;48.354;10.064;2022-09-09T02:16:41;14.00;99.90
1702;DHT22;848;48.354;10.064;2022-09-09T02:19:13;13.90;99.90
1702;DHT22;848;48.354;10.064;2022-09-09T02:21:46;13.90;99.90
1702;DHT22;848;48.354;10.064;2022-09-09T02:24:14;13.90;99.90
1702;DHT22;848;48.354;10.064;2022-09-09T02:26:43;13.90;99.90
1702;DHT22;848;48.354;10.064;2022-09-09T02:29:16;13.80;99.90
1702;DHT22;848;48.354;10.064;2022-09-09T02:31:46;13.80;99.90
1702;DHT22;848;48.354;10.064;2022-09-09T02:34:15;13.80;99.90
1702;DHT22;848;48.354;10.064;2022-09-09T02:36:44;13.70;99.90
1702;DHT22;848;48.354;10.064;2022-09-09T02:39:14;13.60;99.90
1702;DHT22;848;48.354;10.064;2022-09-09T02:41:42;13.60;99.90
1702;DHT22;848;48.354;10.064;2022-09-09T02:44:12;13.50;99.90
1702;DHT22;848;48.354;10.064;2022-09-09T02:46:54;13.50;99.90
1702;DHT22;848;48.354;10.064;2022-09-09T02:49:29;13.50;99.90
1702;DHT22;848;48.354;10.064;2022-09-09T02:52:01;13.50;99.90
1702;DHT22;848;48.354;10.064;2022-09-09T02:54:32;13.50;99.90
1702;DHT22;848;48.354;10.064;2022-09-09T02:57:06;13.50;99.90
1702;DHT22;848;48.354;10.064;2022-09-09T02:59:35;13.50;99.90
1702;DHT22;848;48.354;10.064;2022-09-09T03:02:03;13.50;99.90
1702;DHT22;848;48.354;10.064;2022-09-09T03:04:30;13.40;99.90
1702;DHT22;848;48.354;10.064;2022-09-09T03:06:57;13.40;99.90
1702;DHT22;848;48.354;10.064;2022-09-09T03:09:24;13.40;99.90
1702;DHT22;848;48.354;10.064;2022-09-09T03:11:51;13.40;99.90
1702;DHT22;848;48.354;10.064;2022-09-09T03:14:20;13.40;99.90
1702;DHT22;848;48.354;10.064;2022-09-09T03:16:51;13.40;99.90
1702;DHT22;848;48.354;10.064;2022-09-09T03:19:18;13.40;99.90
1702;DHT22;848;48.354;10.064;2022-09-09T03:21:45;13.50;99.90
1702;DHT22;848;48.354;10.064;2022-09-09T03:24:12;13.50;99.90
1702;DHT22;848;48.354;10.064;2022-09-09T03:26:39;13.60;99.90
1702;DHT22;848;48.354;10.064;2022-09-09T03:29:06;13.60;99.90
1702;DHT22;848;48.354;10.064;2022-09-09T03:31:33;13.60;99.90
1702;DHT22;848;48.354;10.064;2022-09-09T03:34:02;13.60;99.90
1702;DHT22;848;48.354;10.064;2022-09-09T03:36:30;13.60;99.90
1702;DHT22;848;48.354;10.064;2022-09-09T03:38:57;13.70;99.90
1702;DHT22;848;48.354;10.064;2022-09-09T03:41:25;13.60;99.90
1702;DHT22;848;48.354;10.064;2022-09-09T03:43:53;13.70;99.90
1702;DHT22;848;48.354;10.064;2022-09-09T03:46:21;13.70;99.90
1702;DHT22;848;48.354;10.064;2022-09-09T03:48:49;13.70;99.90
1702;DHT22;848;48.354;10.064;2022-09-09T03:51:18;13.80;99.90
1702;DHT22;848;48.354;10.064;2022-09-09T03:53:44;13.90;99.90
1702;DHT22;848;48.354;10.064;2022-09-09T03:56:12;14.00;99.90
1702;DHT22;848;48.354;10.064;2022-09-09T03:58:39;14.00;99.90
1702;DHT22;848;48.354;10.064;2022-09-09T04:01:07;13.90;99.90
1702;DHT22;848;48.354;10.064;2022-09-09T04:03:35;13.90;99.90
1702;DHT22;848;48.354;10.064;2022-09-09T04:06:03;14.00;99.90
1702;DHT22;848;48.354;10.064;2022-09-09T04:08:33;14.10;99.90
1702;DHT22;848;48.354;10.064;2022-09-09T04:11:01;14.20;99.90
1702;DHT22;848;48.354;10.064;2022-09-09T04:13:32;14.20;99.90
1702;DHT22;848;48.354;10.064;2022-09-09T04:16:01;14.20;99.90
1702;DHT22;848;48.354;10.064;2022-09-09T04:18:29;14.30;99.90
1702;DHT22;848;48.354;10.064;2022-09-09T04:20:56;14.30;99.90
1702;DHT22;848;48.354;10.064;2022-09-09T04:23:24;14.30;99.90
1702;DHT22;848;48.354;10.064;2022-09-09T04:25:54;14.30;99.90
1702;DHT22;848;48.354;10.064;2022-09-09T04:28:23;14.40;99.90
1702;DHT22;848;48.354;10.064;2022-09-09T04:30:50;14.50;99.90
1702;DHT22;848;48.354;10.064;2022-09-09T04:35:30;14.50;99.90
1702;DHT22;848;48.354;10.064;2022-09-09T04:37:57;14.40;99.90
1702;DHT22;848;48.354;10.064;2022-09-09T04:40:24;14.40;99.90
1702;DHT22;848;48.354;10.064;2022-09-09T04:42:51;14.50;99.90
1702;DHT22;848;48.354;10.064;2022-09-09T04:45:18;14.50;99.90
1702;DHT22;848;48.354;10.064;2022-09-09T04:47:45;14.60;99.90
1702;DHT22;848;48.354;10.064;2022-09-09T04:50:12;14.60;99.90
1702;DHT22;848;48.354;10.064;2022-09-09T04:52:40;14.60;99.90
1702;DHT22;848;48.354;10.064;2022-09-09T04:55:08;14.60;99.90
1702;DHT22;848;48.354;10.064;2022-09-09T04:57:35;14.70;99.90
1702;DHT22;848;48.354;10.064;2022-09-09T05:00:03;14.70;99.90
1702;DHT22;848;48.354;10.064;2022-09-09T05:02:30;14.70;99.90
1702;DHT22;848;48.354;10.064;2022-09-09T05:04:57;14.70;99.90
1702;DHT22;848;48.354;10.064;2022-09-09T05:07:26;14.70;99.90
1702;DHT22;848;48.354;10.064;2022-09-09T05:09:55;14.70;99.90
1702;DHT22;848;48.354;10.064;2022-09-09T05:12:23;14.70;99.90
1702;DHT22;848;48.354;10.064;2022-09-09T05:14:51;14.80;99.90
1702;DHT22;848;48.354;10.064;2022-09-09T05:17:18;14.70;99.90
1702;DHT22;848;48.354;10.064;2022-09-09T05:19:47;14.70;99.90
1702;DHT22;848;48.354;10.064;2022-09-09T05:22:18;14.80;99.90
1702;DHT22;848;48.354;10.064;2022-09-09T05:24:45;14.80;99.90
1702;DHT22;848;48.354;10.064;2022-09-09T05:27:14;14.90;99.90
1702;DHT22;848;48.354;10.064;2022-09-09T05:29:40;14.80;99.90
1702;DHT22;848;48.354;10.064;2022-09-09T05:32:10;14.80;99.90
1702;DHT22;848;48.354;10.064;2022-09-09T05:34:36;14.90;99.90
1702;DHT22;848;48.354;10.064;2022-09-09T05:37:04;14.90;99.90
1702;DHT22;848;48.354;10.064;2022-09-09T05:39:32;14.90;99.90
1702;DHT22;848;48.354;10.064;2022-09-09T05:41:59;14.90;99.90
1702;DHT22;848;48.354;10.064;2022-09-09T05:44:28;14.90;99.90
1702;DHT22;848;48.354;10.064;2022-09-09T05:46:55;15.00;99.90
1702;DHT22;848;48.354;10.064;2022-09-09T05:49:23;15.00;99.90
1702;DHT22;848;48.354;10.064;2022-09-09T05:51:50;14.90;99.90
1702;DHT22;848;48.354;10.064;2022-09-09T05:54:17;14.90;99.90
1702;DHT22;848;48.354;10.064;2022-09-09T05:56:44;14.90;99.90
1702;DHT22;848;48.354;10.064;2022-09-09T05:59:11;15.00;99.90
1702;DHT22;848;48.354;10.064;2022-09-09T06:01:39;15.00;99.90
1702;DHT22;848;48.354;10.064;2022-09-09T06:04:06;15.00;99.90
1702;DHT22;848;48.354;10.064;2022-09-09T06:06:36;15.00;99.90
1702;DHT22;848;48.354;10.064;2022-09-09T06:09:05;15.10;99.90
1702;DHT22;848;48.354;10.064;2022-09-09T06:11:36;15.10;99.90
1702;DHT22;848;48.354;10.064;2022-09-09T06:14:04;15.10;99.90
1702;DHT22;848;48.354;10.064;2022-09-09T06:16:33;15.20;99.90
1702;DHT22;848;48.354;10.064;2022-09-09T06:19:01;15.20;99.90
1702;DHT22;848;48.354;10.064;2022-09-09T06:21:30;15.30;99.90
1702;DHT22;848;48.354;10.064;2022-09-09T06:23:58;15.40;99.90
1702;DHT22;848;48.354;10.064;2022-09-09T06:26:27;15.50;99.90
1702;DHT22;848;48.354;10.064;2022-09-09T06:28:55;15.50;99.90
1702;DHT22;848;48.354;10.064;2022-09-09T06:31:25;15.50;99.90
1702;DHT22;848;48.354;10.064;2022-09-09T06:33:53;15.50;99.90
1702;DHT22;848;48.354;10.064;2022-09-09T06:36:23;15.50;99.90
1702;DHT22;848;48.354;10.064;2022-09-09T06:38:51;15.40;99.90
1702;DHT22;848;48.354;10.064;2022-09-09T06:41:19;15.40;99.90
1702;DHT22;848;48.354;10.064;2022-09-09T06:43:46;15.50;99.90
1702;DHT22;848;48.354;10.064;2022-09-09T06:46:14;15.50;99.90
1702;DHT22;848;48.354;10.064;2022-09-09T06:48:42;15.60;99.90
1702;DHT22;848;48.354;10.064;2022-09-09T06:51:12;15.60;99.90
1702;DHT22;848;48.354;10.064;2022-09-09T06:53:41;15.70;99.90
1702;DHT22;848;48.354;10.064;2022-09-09T06:56:27;15.70;99.90
1702;DHT22;848;48.354;10.064;2022-09-09T06:58:55;15.70;99.90
1702;DHT22;848;48.354;10.064;2022-09-09T07:01:25;15.70;99.90
1702;DHT22;848;48.354;10.064;2022-09-09T07:03:53;15.70;99.90
1702;DHT22;848;48.354;10.064;2022-09-09T07:06:22;15.80;99.90
1702;DHT22;848;48.354;10.064;2022-09-09T07:08:52;15.80;99.90
1702;DHT22;848;48.354;10.064;2022-09-09T07:11:21;15.90;99.90
1702;DHT22;848;48.354;10.064;2022-09-09T07:13:49;15.90;99.90
1702;DHT22;848;48.354;10.064;2022-09-09T07:16:18;16.00;99.90
1702;DHT22;848;48.354;10.064;2022-09-09T07:18:46;16.10;99.90
1702;DHT22;848;48.354;10.064;2022-09-09T07:21:14;16.20;99.90
1702;DHT22;848;48.354;10.064;2022-09-09T07:23:41;16.30;99.90
1702;DHT22;848;48.354;10.064;2022-09-09T07:26:11;16.40;99.90
1702;DHT22;848;48.354;10.064;2022-09-09T07:28:39;16.40;99.90
1702;DHT22;848;48.354;10.064;2022-09-09T07:31:06;16.50;99.90
1702;DHT22;848;48.354;10.064;2022-09-09T07:33:35;16.60;99.90
1702;DHT22;848;48.354;10.064;2022-09-09T07:36:04;17.00;99.90
1702;DHT22;848;48.354;10.064;2022-09-09T07:38:31;17.20;99.90
1702;DHT22;848;48.354;10.064;2022-09-09T07:41:03;17.30;99.90
1702;DHT22;848;48.354;10.064;2022-09-09T07:43:32;17.30;99.90
1702;DHT22;848;48.354;10.064;2022-09-09T07:46:00;17.30;99.90
1702;DHT22;848;48.354;10.064;2022-09-09T07:48:28;17.30;99.90
1702;DHT22;848;48.354;10.064;2022-09-09T07:51:06;17.50;99.90
1702;DHT22;848;48.354;10.064;2022-09-09T07:53:34;17.90;99.90
1702;DHT22;848;48.354;10.064;2022-09-09T07:56:06;18.10;99.90
1702;DHT22;848;48.354;10.064;2022-09-09T07:58:36;18.20;99.90
1702;DHT22;848;48.354;10.064;2022-09-09T08:01:08;18.00;99.90
1702;DHT22;848;48.354;10.064;2022-09-09T08:03:35;17.70;99.90
1702;DHT22;848;48.354;10.064;2022-09-09T08:06:03;17.80;99.90
1702;DHT22;848;48.354;10.064;2022-09-09T08:08:31;18.00;99.90
1702;DHT22;848;48.354;10.064;2022-09-09T08:11:03;18.10;99.90
1702;DHT22;848;48.354;10.064;2022-09-09T08:13:30;18.20;99.90
1702;DHT22;848;48.354;10.064;2022-09-09T08:16:06;18.00;99.90
1702;DHT22;848;48.354;10.064;2022-09-09T08:18:33;18.00;99.90
1702;DHT22;848;48.354;10.064;2022-09-09T08:21:06;18.00;99.90
1702;DHT22;848;48.354;10.064;2022-09-09T08:23:34;17.90;99.90
1702;DHT22;848;48.354;10.064;2022-09-09T08:26:09;18.00;99.90
1702;DHT22;848;48.354;10.064;2022-09-09T08:28:36;18.30;99.90
1702;DHT22;848;48.354;10.064;2022-09-09T08:31:10;18.30;99.90
1702;DHT22;848;48.354;10.064;2022-09-09T08:33:37;18.40;99.90
1702;DHT22;848;48.354;10.064;2022-09-09T08:36:05;18.30;99.90
1702;DHT22;848;48.354;10.064;2022-09-09T08:38:34;18.30;99.90
1702;DHT22;848;48.354;10.064;2022-09-09T08:41:18;18.30;99.90
1702;DHT22;848;48.354;10.064;2022-09-09T08:44:00;18.30;99.90
1702;DHT22;848;48.354;10.064;2022-09-09T08:46:36;18.30;99.90
1702;DHT22;848;48.354;10.064;2022-09-09T08:49:17;18.30;99.90
1702;DHT22;848;48.354;10.064;2022-09-09T08:51:45;18.30;99.90
1702;DHT22;848;48.354;10.064;2022-09-09T08:54:12;18.30;99.90
1702;DHT22;848;48.354;10.064;2022-09-09T08:56:39;18.30;99.90
1702;DHT22;848;48.354;10.064;2022-09-09T08:59:11;18.20;99.90
1702;DHT22;848;48.354;10.064;2022-09-09T09:01:58;18.20;99.90
1702;DHT22;848;48.354;10.064;2022-09-09T09:04:46;18.00;99.90
1702;DHT22;848;48.354;10.064;2022-09-09T09:07:25;17.90;99.90
1702;DHT22;848;48.354;10.064;2022-09-09T09:10:02;18.00;99.90
1702;DHT22;848;48.354;10.064;2022-09-09T09:12:35;18.00;99.90
1702;DHT22;848;48.354;10.064;2022-09-09T09:15:14;18.10;99.90
1702;DHT22;848;48.354;10.064;2022-09-09T09:17:44;18.20;99.90
1702;DHT22;848;48.354;10.064;2022-09-09T09:20:13;18.30;99.90
1702;DHT22;848;48.354;10.064;2022-09-09T09:22:47;18.40;99.90
1702;DHT22;848;48.354;10.064;2022-09-09T09:25:46;18.60;99.90
1702;DHT22;848;48.354;10.064;2022-09-09T09:28:15;18.80;99.90
1702;DHT22;848;48.354;10.064;2022-09-09T09:30:47;19.10;99.90
1702;DHT22;848;48.354;10.064;2022-09-09T09:33:22;19.30;99.90
1702;DHT22;848;48.354;10.064;2022-09-09T09:35:51;19.40;99.90
1702;DHT22;848;48.354;10.064;2022-09-09T09:38:20;19.20;99.90
1702;DHT22;848;48.354;10.064;2022-09-09T09:40:52;19.10;99.90
1702;DHT22;848;48.354;10.064;2022-09-09T09:43:23;19.30;99.90
1702;DHT22;848;48.354;10.064;2022-09-09T09:45:51;19.50;99.90
1702;DHT22;848;48.354;10.064;2022-09-09T09:48:19;19.70;99.90
1702;DHT22;848;48.354;10.064;2022-09-09T09:50:49;19.90;99.90
1702;DHT22;848;48.354;10.064;2022-09-09T09:53:20;19.80;99.90
1702;DHT22;848;48.354;10.064;2022-09-09T09:55:54;19.60;99.90
1702;DHT22;848;48.354;10.064;2022-09-09T09:58:21;19.40;99.90
1702;DHT22;848;48.354;10.064;2022-09-09T10:00:49;19.20;99.90
1702;DHT22;848;48.354;10.064;2022-09-09T10:03:27;19.30;99.90
1702;DHT22;848;48.354;10.064;2022-09-09T10:05:55;19.40;99.90
1702;DHT22;848;48.354;10.064;2022-09-09T10:08:23;19.40;99.90
1702;DHT22;848;48.354;10.064;2022-09-09T10:11:04;19.40;99.90
1702;DHT22;848;48.354;10.064;2022-09-09T10:13:39;19.40;99.90
1702;DHT22;848;48.354;10.064;2022-09-09T10:16:19;19.50;99.90
1702;DHT22;848;48.354;10.064;2022-09-09T10:18:58;19.50;99.90
1702;DHT22;848;48.354;10.064;2022-09-09T10:21:33;19.60;99.90
1702;DHT22;848;48.354;10.064;2022-09-09T10:24:19;19.60;99.90
1702;DHT22;848;48.354;10.064;2022-09-09T10:26:53;19.70;99.90
1702;DHT22;848;48.354;10.064;2022-09-09T10:29:41;19.60;99.90
1702;DHT22;848;48.354;10.064;2022-09-09T10:32:24;19.60;99.90
1702;DHT22;848;48.354;10.064;2022-09-09T10:35:02;19.70;99.90
1702;DHT22;848;48.354;10.064;2022-09-09T10:37:46;19.80;99.90
1702;DHT22;848;48.354;10.064;2022-09-09T10:40:25;19.70;99.90
1702;DHT22;848;48.354;10.064;2022-09-09T10:43:13;19.80;99.90
1702;DHT22;848;48.354;10.064;2022-09-09T10:45:50;19.90;99.90
1702;DHT22;848;48.354;10.064;2022-09-09T10:48:31;20.10;99.90
1702;DHT22;848;48.354;10.064;2022-09-09T10:51:14;20.30;99.90
1702;DHT22;848;48.354;10.064;2022-09-09T10:53:52;20.50;99.90
1702;DHT22;848;48.354;10.064;2022-09-09T10:56:21;20.60;99.90
1702;DHT22;848;48.354;10.064;2022-09-09T10:58:53;20.80;99.90
1702;DHT22;848;48.354;10.064;2022-09-09T11:01:25;21.00;99.90
1702;DHT22;848;48.354;10.064;2022-09-09T11:03:55;20.90;99.90
1702;DHT22;848;48.354;10.064;2022-09-09T11:06:30;20.80;99.90
1702;DHT22;848;48.354;10.064;2022-09-09T11:08:58;20.70;99.90
1702;DHT22;848;48.354;10.064;2022-09-09T11:11:32;20.50;99.90
1702;DHT22;848;48.354;10.064;2022-09-09T11:14:03;20.40;99.90
1702;DHT22;848;48.354;10.064;2022-09-09T11:16:40;20.50;99.90
1702;DHT22;848;48.354;10.064;2022-09-09T11:19:15;20.60;99.90
1702;DHT22;848;48.354;10.064;2022-09-09T11:21:47;20.80;99.90
1702;DHT22;848;48.354;10.064;2022-09-09T11:24:20;20.80;99.90
1702;DHT22;848;48.354;10.064;2022-09-09T11:26:51;20.80;99.90
1702;DHT22;848;48.354;10.064;2022-09-09T11:29:36;20.70;99.90
1702;DHT22;848;48.354;10.064;2022-09-09T11:32:18;20.70;99.90
1702;DHT22;848;48.354;10.064;2022-09-09T11:34:53;20.80;99.90
1702;DHT22;848;48.354;10.064;2022-09-09T11:37:43;20.70;99.90
1702;DHT22;848;48.354;10.064;2022-09-09T11:40:20;20.70;99.90
1702;DHT22;848;48.354;10.064;2022-09-09T11:42:49;20.70;99.90
1702;DHT22;848;48.354;10.064;2022-09-09T11:45:28;20.60;99.90
1702;DHT22;848;48.354;10.064;2022-09-09T11:47:56;20.50;99.90
1702;DHT22;848;48.354;10.064;2022-09-09T11:50:34;20.50;99.90
1702;DHT22;848;48.354;10.064;2022-09-09T11:53:19;20.50;99.90
1702;DHT22;848;48.354;10.064;2022-09-09T11:56:00;20.30;99.90
1702;DHT22;848;48.354;10.064;2022-09-09T11:58:29;20.20;99.90
1702;DHT22;848;48.354;10.064;2022-09-09T12:00:59;20.20;99.90
1702;DHT22;848;48.354;10.064;2022-09-09T12:03:38;20.40;99.90
1702;DHT22;848;48.354;10.064;2022-09-09T12:06:15;20.60;99.90
1702;DHT22;848;48.354;10.064;2022-09-09T12:08:48;20.70;99.90
1702;DHT22;848;48.354;10.064;2022-09-09T12:11:25;20.90;99.90
1702;DHT22;848;48.354;10.064;2022-09-09T12:13:53;20.90;99.90
1702;DHT22;848;48.354;10.064;2022-09-09T12:16:32;20.80;99.90
1702;DHT22;848;48.354;10.064;2022-09-09T12:19:12;20.70;99.90
1702;DHT22;848;48.354;10.064;2022-09-09T12:21:46;20.70;99.90
1702;DHT22;848;48.354;10.064;2022-09-09T12:24:20;20.60;99.90
1702;DHT22;848;48.354;10.064;2022-09-09T12:26:56;20.50;99.90
1702;DHT22;848;48.354;10.064;2022-09-09T12:29:27;20.40;99.90
1702;DHT22;848;48.354;10.064;2022-09-09T12:32:02;20.40;99.90
1702;DHT22;848;48.354;10.064;2022-09-09T12:34:38;20.40;99.90
1702;DHT22;848;48.354;10.064;2022-09-09T12:37:11;20.40;99.90
1702;DHT22;848;48.354;10.064;2022-09-09T12:39:45;20.70;99.90
1702;DHT22;848;48.354;10.064;2022-09-09T12:42:20;20.80;99.90
1702;DHT22;848;48.354;10.064;2022-09-09T12:44:55;20.90;99.90
1702;DHT22;848;48.354;10.064;2022-09-09T12:47:28;20.80;99.90
1702;DHT22;848;48.354;10.064;2022-09-09T12:49:57;20.70;99.90
1702;DHT22;848;48.354;10.064;2022-09-09T12:52:29;20.70;99.90
1702;DHT22;848;48.354;10.064;2022-09-09T12:55:00;20.60;99.90
1702;DHT22;848;48.354;10.064;2022-09-09T12:57:32;20.50;99.90
1702;DHT22;848;48.354;10.064;2022-09-09T13:00:07;20.40;99.90
1702;DHT22;848;48.354;10.064;2022-09-09T13:02:45;20.40;99.90
1702;DHT22;848;48.354;10.064;2022-09-09T13:05:15;20.60;99.90
1702;DHT22;848;48.354;10.064;2022-09-09T13:07:43;20.60;99.90
1702;DHT22;848;48.354;10.064;2022-09-09T13:10:13;20.70;99.90
1702;DHT22;848;48.354;10.064;2022-09-09T13:12:42;20.80;99.90
1702;DHT22;848;48.354;10.064;2022-09-09T13:15:16;20.80;99.90
1702;DHT22;848;48.354;10.064;2022-09-09T13:17:51;21.00;99.90
1702;DHT22;848;48.354;10.064;2022-09-09T13:20:20;21.10;99.90
1702;DHT22;848;48.354;10.064;2022-09-09T13:22:48;21.30;99.90
1702;DHT22;848;48.354;10.064;2022-09-09T13:25:22;21.40;99.90
1702;DHT22;848;48.354;10.064;2022-09-09T13:28:18;21.20;99.90
1702;DHT22;848;48.354;10.064;2022-09-09T13:30:56;21.10;99.90
1702;DHT22;848;48.354;10.064;2022-09-09T13:33:29;21.00;99.90
1702;DHT22;848;48.354;10.064;2022-09-09T13:35:57;20.90;99.90
1702;DHT22;848;48.354;10.064;2022-09-09T13:38:27;20.80;99.90
1702;DHT22;848;48.354;10.064;2022-09-09T13:41:00;20.90;99.90
1702;DHT22;848;48.354;10.064;2022-09-09T13:43:30;20.80;99.90
1702;DHT22;848;48.354;10.064;2022-09-09T13:45:59;20.90;99.90
1702;DHT22;848;48.354;10.064;2022-09-09T13:48:27;20.80;99.90
1702;DHT22;848;48.354;10.064;2022-09-09T13:50:57;20.70;99.90
1702;DHT22;848;48.354;10.064;2022-09-09T13:53:24;20.60;99.90
1702;DHT22;848;48.354;10.064;2022-09-09T13:55:51;20.60;99.90
1702;DHT22;848;48.354;10.064;2022-09-09T13:58:19;20.60;99.90
1702;DHT22;848;48.354;10.064;2022-09-09T14:00:48;20.60;99.90
1702;DHT22;848;48.354;10.064;2022-09-09T14:05:27;20.60;99.90
1702;DHT22;848;48.354;10.064;2022-09-09T14:07:54;20.50;99.90
1702;DHT22;848;48.354;10.064;2022-09-09T14:10:24;20.50;99.90
1702;DHT22;848;48.354;10.064;2022-09-09T14:12:51;20.40;99.90
1702;DHT22;848;48.354;10.064;2022-09-09T14:15:18;20.50;99.90
1702;DHT22;848;48.354;10.064;2022-09-09T14:17:45;20.40;99.90
1702;DHT22;848;48.354;10.064;2022-09-09T14:20:14;20.50;99.90
1702;DHT22;848;48.354;10.064;2022-09-09T14:22:44;20.50;99.90
1702;DHT22;848;48.354;10.064;2022-09-09T14:25:11;20.50;99.90
1702;DHT22;848;48.354;10.064;2022-09-09T14:27:39;20.50;99.90
1702;DHT22;848;48.354;10.064;2022-09-09T14:30:07;20.60;99.90
1702;DHT22;848;48.354;10.064;2022-09-09T14:32:34;20.60;99.90
1702;DHT22;848;48.354;10.064;2022-09-09T14:35:00;20.60;99.90
1702;DHT22;848;48.354;10.064;2022-09-09T14:37:28;20.70;99.90
1702;DHT22;848;48.354;10.064;2022-09-09T14:39:58;20.60;99.90
1702;DHT22;848;48.354;10.064;2022-09-09T14:42:25;20.70;99.90
1702;DHT22;848;48.354;10.064;2022-09-09T14:44:52;20.80;99.90
1702;DHT22;848;48.354;10.064;2022-09-09T14:47:19;20.90;99.90
1702;DHT22;848;48.354;10.064;2022-09-09T14:49:46;20.90;99.90
1702;DHT22;848;48.354;10.064;2022-09-09T14:52:15;20.80;99.90
1702;DHT22;848;48.354;10.064;2022-09-09T14:54:48;20.90;99.90
1702;DHT22;848;48.354;10.064;2022-09-09T14:57:17;20.80;99.90
1702;DHT22;848;48.354;10.064;2022-09-09T14:59:44;20.70;99.90
1702;DHT22;848;48.354;10.064;2022-09-09T15:02:10;20.70;99.90
1702;DHT22;848;48.354;10.064;2022-09-09T15:04:39;20.70;99.90
1702;DHT22;848;48.354;10.064;2022-09-09T15:07:06;20.70;99.90
1702;DHT22;848;48.354;10.064;2022-09-09T15:09:33;20.70;99.90
1702;DHT22;848;48.354;10.064;2022-09-09T15:12:01;20.70;99.90
1702;DHT22;848;48.354;10.064;2022-09-09T15:14:29;20.80;99.90
1702;DHT22;848;48.354;10.064;2022-09-09T15:16:56;20.80;99.90
1702;DHT22;848;48.354;10.064;2022-09-09T15:19:23;20.90;99.90
1702;DHT22;848;48.354;10.064;2022-09-09T15:21:50;20.80;99.90
1702;DHT22;848;48.354;10.064;2022-09-09T15:24:17;20.80;99.90
1702;DHT22;848;48.354;10.064;2022-09-09T15:26:45;20.80;99.90
1702;DHT22;848;48.354;10.064;2022-09-09T15:29:12;20.80;99.90
1702;DHT22;848;48.354;10.064;2022-09-09T15:31:40;20.80;99.90
1702;DHT22;848;48.354;10.064;2022-09-09T15:34:08;20.70;99.90
1702;DHT22;848;48.354;10.064;2022-09-09T15:36:36;20.70;99.90
1702;DHT22;848;48.354;10.064;2022-09-09T15:39:05;20.70;99.90
1702;DHT22;848;48.354;10.064;2022-09-09T15:41:33;20.70;99.90
1702;DHT22;848;48.354;10.064;2022-09-09T15:44:00;20.70;99.90
1702;DHT22;848;48.354;10.064;2022-09-09T15:46:30;20.70;99.90
1702;DHT22;848;48.354;10.064;2022-09-09T15:49:04;20.60;99.90
1702;DHT22;848;48.354;10.064;2022-09-09T15:51:31;20.60;99.90
1702;DHT22;848;48.354;10.064;2022-09-09T15:55:25;20.70;99.90
1702;DHT22;848;48.354;10.064;2022-09-09T15:57:52;20.80;99.90
1702;DHT22;848;48.354;10.064;2022-09-09T16:00:21;20.70;99.90
1702;DHT22;848;48.354;10.064;2022-09-09T16:02:50;20.70;99.90
1702;DHT22;848;48.354;10.064;2022-09-09T16:05:18;20.80;99.90
1702;DHT22;848;48.354;10.064;2022-09-09T16:07:46;20.80;99.90
1702;DHT22;848;48.354;10.064;2022-09-09T16:10:13;20.90;99.90
1702;DHT22;848;48.354;10.064;2022-09-09T16:12:41;20.90;99.90
1702;DHT22;848;48.354;10.064;2022-09-09T16:15:08;21.00;99.90
1702;DHT22;848;48.354;10.064;2022-09-09T16:17:35;21.00;99.90
1702;DHT22;848;48.354;10.064;2022-09-09T16:20:04;20.90;99.90
1702;DHT22;848;48.354;10.064;2022-09-09T16:22:34;20.80;99.90
1702;DHT22;848;48.354;10.064;2022-09-09T16:25:02;20.70;99.90
1702;DHT22;848;48.354;10.064;2022-09-09T16:27:29;20.60;99.90
1702;DHT22;848;48.354;10.064;2022-09-09T16:30:00;20.50;99.90
1702;DHT22;848;48.354;10.064;2022-09-09T16:32:28;20.40;99.90